Time;durP1;ratioP1;P1;durP2;ratioP2;P2;SDS_P1;SDS_P2;PMS_P1;PMS_P2;Temp;Humidity;BMP_temperature;BMP_pressure;BME280_temperature;BME280_humidity;BME280_pressure;Samples;Min_cycle;Max_cycle;Signal;HPM_P1;HPM_P2
2021/04/11 00:00:18;;;;;;;83.37;43.58;;;;;;;13.06;52.11;100311.99;1694904;83;21023;-78
2021/04/11 00:02:47;;;;;;;90.95;46.42;;;;;;;13.12;51.86;100303.36;1699152;82;21771;-78
2021/04/11 00:05:36;;;;;;;84.65;45.98;;;;;;;12.91;53.07;100307.38;1697557;83;21255;-78
2021/04/11 00:08:03;;;;;;;94.30;47.25;;;;;;;12.84;53.36;100303.73;1653954;85;22031;-78
2021/04/11 00:10:35;;;;;;;86.42;46.18;;;;;;;12.90;53.32;100313.66;1657847;84;21230;-78
2021/04/11 00:13:04;;;;;;;96.92;45.30;;;;;;;12.84;53.64;100310.36;1652315;84;21189;-78
2021/04/11 00:15:32;;;;;;;94.20;45.75;;;;;;;12.88;53.71;100307.72;1657397;85;21844;-77
2021/04/11 00:17:57;;;;;;;97.02;47.05;;;;;;;13.00;53.55;100304.71;1651933;85;21659;-78
2021/04/11 00:20:27;;;;;;;95.42;47.23;;;;;;;13.03;53.51;100299.07;1654389;85;22164;-78
2021/04/11 00:22:54;;;;;;;95.77;45.48;;;;;;;13.03;53.50;100301.72;1643757;84;21893;-79
2021/04/11 00:25:28;;;;;;;95.00;45.98;;;;;;;13.17;53.25;100298.37;1651471;85;21325;-79
2021/04/11 00:27:54;;;;;;;89.92;45.67;;;;;;;13.07;53.46;100299.08;1657786;85;21196;-78
2021/04/11 00:30:20;;;;;;;88.60;44.55;;;;;;;13.02;53.57;100309.34;1645129;85;21041;-79
2021/04/11 00:32:49;;;;;;;89.45;45.60;;;;;;;13.00;53.89;100304.71;1653353;85;21891;-78
2021/04/11 00:35:18;;;;;;;88.80;46.00;;;;;;;12.95;53.92;100304.40;1652456;85;21146;-78
2021/04/11 00:37:46;;;;;;;94.05;45.95;;;;;;;12.88;54.26;100309.05;1649465;85;21214;-78
2021/04/11 00:40:35;;;;;;;91.37;46.98;;;;;;;12.85;54.30;100304.08;1647215;85;21652;-79
2021/04/11 00:43:08;;;;;;;92.45;47.38;;;;;;;12.76;54.61;100301.09;1646691;85;21182;-80
2021/04/11 00:46:00;;;;;;;88.15;44.88;;;;;;;12.78;54.56;100301.75;1639944;85;21249;-79
2021/04/11 00:48:30;;;;;;;95.70;46.65;;;;;;;12.79;54.68;100310.55;1671651;84;22300;-77
2021/04/11 00:51:13;;;;;;;95.10;48.92;;;;;;;12.72;55.03;100313.02;1646946;85;21754;-77
2021/04/11 00:53:41;;;;;;;93.10;47.17;;;;;;;12.70;55.38;100311.03;1651898;85;21185;-79
2021/04/11 00:56:08;;;;;;;85.32;45.83;;;;;;;12.71;55.33;100314.03;1650945;85;21151;-77
2021/04/11 00:58:34;;;;;;;92.08;46.58;;;;;;;12.71;55.18;100318.82;1621272;85;25928;-78
2021/04/11 01:01:01;;;;;;;90.17;46.90;;;;;;;12.67;55.54;100317.99;1617846;85;21193;-77
2021/04/11 01:03:29;;;;;;;90.65;46.58;;;;;;;12.77;55.23;100319.99;1654475;85;21230;-77
2021/04/11 01:05:56;;;;;;;86.82;45.48;;;;;;;12.78;55.21;100320.30;1645096;85;22121;-78
2021/04/11 01:08:27;;;;;;;90.77;45.05;;;;;;;12.86;55.07;100319.47;1630079;86;21172;-78
2021/04/11 01:11:11;;;;;;;88.65;44.98;;;;;;;12.87;55.22;100319.30;1651899;85;21158;-77
2021/04/11 01:13:44;;;;;;;87.78;43.65;;;;;;;12.88;55.41;100318.31;1623889;86;21557;-77
2021/04/11 01:16:11;;;;;;;90.32;45.63;;;;;;;12.92;55.07;100322.27;1646151;85;21241;-77
2021/04/11 01:18:39;;;;;;;87.27;44.73;;;;;;;13.00;54.73;100333.88;1649329;85;21210;-78
2021/04/11 01:21:35;;;;;;;87.95;45.08;;;;;;;12.98;54.96;100330.57;1650124;85;21748;-77
2021/04/11 01:24:20;;;;;;;;;;;;;;;12.99;55.06;100318.95;1658203;84;21388;-78
2021/04/11 01:26:52;;;;;;;81.95;43.40;;;;;;;13.00;54.99;100315.31;1644950;85;20311;-78
2021/04/11 01:29:19;;;;;;;83.75;43.05;;;;;;;12.83;55.25;100323.27;1654377;85;21237;-78
2021/04/11 01:31:47;;;;;;;85.85;44.38;;;;;;;12.82;55.68;100327.41;1651354;85;21210;-78
2021/04/11 01:34:13;;;;;;;83.97;42.67;;;;;;;12.80;55.83;100323.60;1654435;85;21206;-78
2021/04/11 01:36:42;;;;;;;83.15;43.45;;;;;;;12.83;55.72;100312.67;1649530;84;21218;-79
2021/04/11 01:39:15;;;;;;;78.45;42.70;;;;;;;12.82;55.41;100324.28;1616506;85;21712;-78
2021/04/11 01:41:45;;;;;;;80.10;43.17;;;;;;;12.80;55.12;100323.60;1651976;85;21249;-78
2021/04/11 01:44:15;;;;;;;89.17;44.15;;;;;;;12.76;55.45;100314.34;1639437;85;21643;-79
2021/04/11 01:46:42;;;;;;;82.97;43.25;;;;;;;12.72;55.67;100311.69;1648787;85;21210;-78
2021/04/11 01:49:10;;;;;;;83.20;41.20;;;;;;;12.74;55.49;100316.34;1646553;84;21209;-77
2021/04/11 01:51:38;;;;;;;;;;;;;;;12.74;55.52;100324.30;1647796;84;21229;-77
2021/04/11 01:54:11;;;;;;;77.80;41.98;;;;;;;12.62;55.84;100307.89;1649094;85;20532;-77
2021/04/11 01:56:41;;;;;;;78.65;42.60;;;;;;;12.55;56.31;100313.03;1648976;85;21281;-77
2021/04/11 01:59:28;;;;;;;81.05;41.58;;;;;;;12.57;56.54;100313.69;1646600;85;21189;-77
2021/04/11 02:01:55;;;;;;;77.95;41.73;;;;;;;12.71;55.72;100312.70;1646348;85;21248;-79
2021/04/11 02:04:22;;;;;;;85.57;43.95;;;;;;;12.62;56.47;100307.08;1644949;85;21674;-77
2021/04/11 02:06:53;;;;;;;77.95;41.98;;;;;;;12.57;56.67;100304.92;1645616;85;21215;-77
2021/04/11 02:09:32;;;;;;;87.27;43.28;;;;;;;12.59;56.56;100318.81;1621209;87;21230;-77
2021/04/11 02:11:59;;;;;;;91.47;42.85;;;;;;;12.64;56.18;100313.02;1601519;88;21727;-78
2021/04/11 02:14:27;;;;;;;82.40;43.58;;;;;;;12.63;56.28;100306.06;1599796;88;21219;-79
2021/04/11 02:16:55;;;;;;;87.37;44.90;;;;;;;12.65;56.16;100314.19;1620240;88;21105;-78
2021/04/11 02:19:25;;;;;;;82.20;42.43;;;;;;;12.64;56.30;100310.38;1621674;88;21226;-79
2021/04/11 02:21:57;;;;;;;89.75;44.95;;;;;;;12.61;56.45;100317.33;1621324;88;21206;-79
2021/04/11 02:24:25;;;;;;;79.95;42.73;;;;;;;12.50;56.63;100316.65;1620672;88;21259;-77
2021/04/11 02:26:50;;;;;;;;;;;;;;;12.44;57.15;100314.66;1623617;88;21191;-77
2021/04/11 02:29:21;;;;;;;74.60;39.98;;;;;;;12.47;56.79;100310.36;1621036;88;20548;-76
2021/04/11 02:31:50;;;;;;;76.67;41.60;;;;;;;12.42;56.99;100308.70;1620855;87;21696;-78
2021/04/11 02:34:30;;;;;;;85.72;42.20;;;;;;;12.42;57.03;100304.73;1620980;87;21243;-77
2021/04/11 02:37:13;;;;;;;85.35;42.90;;;;;;;12.38;57.00;100306.05;1588031;89;21266;-80
2021/04/11 02:39:40;;;;;;;78.92;41.68;;;;;;;12.41;56.71;100303.06;1651308;84;21959;-80
2021/04/11 02:42:21;;;;;;;82.45;44.45;;;;;;;12.29;57.39;100299.08;1641575;86;21229;-77
2021/04/11 02:44:56;;;;;;;80.60;43.23;;;;;;;12.13;58.06;100304.68;1646764;86;21656;-77
2021/04/11 02:47:26;;;;;;;81.60;43.55;;;;;;;12.00;58.58;100309.62;1652180;84;21663;-77
2021/04/11 02:49:55;;;;;;;81.92;43.87;;;;;;;11.92;58.84;100305.62;1652766;86;21639;-78
2021/04/11 02:52:32;;;;;;;86.02;44.93;;;;;;;11.91;58.85;100306.59;1644750;85;21272;-78
2021/04/11 02:55:01;;;;;;;80.53;42.62;;;;;;;11.86;59.00;100313.19;1635774;86;21200;-78
2021/04/11 02:57:29;;;;;;;79.42;44.03;;;;;;;11.93;58.44;100307.28;1671802;84;21206;-79
2021/04/11 02:59:54;;;;;;;;;;;;;;;11.90;58.32;100307.58;1639830;86;21283;-78
2021/04/11 03:02:25;;;;;;;82.72;43.52;;;;;;;11.88;58.36;100297.66;1603805;89;20298;-79
2021/04/11 03:04:54;;;;;;;82.65;45.50;;;;;;;11.93;57.89;100298.02;1625759;88;22110;-79
2021/04/11 03:07:37;;;;;;;80.83;43.40;;;;;;;11.95;57.63;100302.68;1612632;87;21599;-79
2021/04/11 03:10:10;;;;;;;85.67;44.33;;;;;;;11.89;57.98;100300.14;1654060;84;21226;-78
2021/04/11 03:12:37;;;;;;;80.38;44.42;;;;;;;11.80;58.28;100304.56;1620848;86;21218;-77
2021/04/11 03:15:09;;;;;;;82.53;44.65;;;;;;;11.82;57.90;100299.12;1640475;84;21671;-78
2021/04/11 03:17:35;;;;;;;83.85;43.95;;;;;;;11.83;57.89;100301.59;1655338;84;21700;-78
2021/04/11 03:20:07;;;;;;;73.67;40.55;;;;;;;11.76;58.06;100307.22;1665288;84;27577;-79
2021/04/11 03:22:33;;;;;;;79.65;39.53;;;;;;;11.73;58.23;100311.98;1652228;84;21763;-78
2021/04/11 03:24:59;;;;;;;72.35;37.58;;;;;;;11.58;58.54;100305.16;1654792;84;21034;-78
2021/04/11 03:27:40;;;;;;;67.55;35.17;;;;;;;11.63;58.09;100301.53;1650388;84;21020;-79
2021/04/11 03:30:24;;;;;;;59.42;32.28;;;;;;;11.66;57.96;100307.83;1655582;84;21307;-78
2021/04/11 03:32:56;;;;;;;61.15;31.60;;;;;;;11.62;57.73;100305.16;1652914;84;21248;-77
2021/04/11 03:35:25;;;;;;;58.70;29.52;;;;;;;11.60;57.76;100309.79;1658827;84;21221;-77
2021/04/11 03:37:51;;;;;;;54.33;28.38;;;;;;;11.59;57.69;100310.77;1658495;84;21235;-77
2021/04/11 03:40:22;;;;;;;54.55;27.48;;;;;;;11.56;57.72;100312.41;1661500;84;21509;-79
2021/04/11 03:42:51;;;;;;;49.33;25.92;;;;;;;11.62;57.55;100314.41;1636152;86;21285;-78
2021/04/11 03:45:20;;;;;;;44.88;24.52;;;;;;;11.62;57.45;100317.06;1646104;84;21600;-78
2021/04/11 03:47:56;;;;;;;51.10;24.85;;;;;;;11.61;57.45;100309.62;1652493;85;21255;-80
2021/04/11 03:50:29;;;;;;;48.05;23.85;;;;;;;11.63;57.34;100309.47;1653875;85;21203;-78
2021/04/11 03:53:23;;;;;;;45.30;23.75;;;;;;;11.57;57.36;100310.11;1647992;85;21175;-77
2021/04/11 03:55:53;;;;;;;40.95;21.55;;;;;;;11.52;57.30;100315.05;1650480;84;22487;-78
2021/04/11 03:58:36;;;;;;;42.78;20.43;;;;;;;11.55;57.19;100313.41;1652189;85;22250;-78
2021/04/11 04:01:06;;;;;;;40.63;20.10;;;;;;;11.49;57.13;100313.03;1639644;85;21660;-78
2021/04/11 04:03:35;;;;;;;41.45;20.30;;;;;;;11.46;57.25;100313.86;1653980;84;21687;-78
2021/04/11 04:06:10;;;;;;;36.63;19.02;;;;;;;11.44;57.14;100319.30;1646517;85;21689;-78
2021/04/11 04:08:40;;;;;;;38.45;19.52;;;;;;;11.42;57.21;100317.31;1655269;84;21225;-77
2021/04/11 04:11:47;;;;;;;41.98;19.85;;;;;;;11.42;57.26;100319.97;1654659;85;21667;-79
2021/04/11 04:14:54;;;;;;;37.53;17.73;;;;;;;11.48;56.81;100318.02;1652979;85;21197;-78
2021/04/11 04:17:29;;;;;;;34.98;17.82;;;;;;;11.49;56.71;100322.30;1650681;85;21243;-78
2021/04/11 04:20:13;;;;;;;34.92;17.20;;;;;;;11.54;56.52;100328.94;1645061;85;22098;-78
2021/04/11 04:23:12;;;;;;;37.20;17.73;;;;;;;11.55;56.47;100327.95;1653180;84;22557;-77
2021/04/11 04:26:05;;;;;;;33.38;17.77;;;;;;;11.58;56.26;100327.64;1646468;84;21253;-77
2021/04/11 04:28:49;;;;;;;37.33;17.52;;;;;;;11.50;56.51;100333.22;1657537;85;21664;-78
2021/04/11 04:32:00;;;;;;;34.50;17.42;;;;;;;11.53;56.33;100333.41;1644986;84;21240;-77
2021/04/11 04:34:36;;;;;;;36.48;16.90;;;;;;;11.55;56.20;100335.39;1647601;85;22737;-78
2021/04/11 04:37:45;;;;;;;29.55;15.85;;;;;;;11.53;56.11;100336.52;1649884;85;21383;-78
2021/04/11 04:40:23;;;;;;;33.08;15.48;;;;;;;11.45;56.15;100342.59;1649477;84;21819;-78
2021/04/11 04:42:58;;;;;;;31.33;15.78;;;;;;;11.47;56.05;100348.08;1650065;84;21771;-77
2021/04/11 04:45:47;;;;;;;30.77;15.15;;;;;;;11.31;56.30;100351.94;1648196;85;21172;-77
2021/04/11 04:48:23;;;;;;;27.95;14.70;;;;;;;11.34;56.42;100356.91;1646133;85;21184;-77
2021/04/11 04:51:09;;;;;;;27.45;14.60;;;;;;;11.37;56.22;100354.46;1620439;85;22738;-78
2021/04/11 04:53:46;;;;;;;31.25;14.20;;;;;;;11.38;56.16;100368.03;1618339;85;22028;-78
2021/04/11 04:56:20;;;;;;;21.60;10.35;;;;;;;11.39;56.14;100364.38;1646400;84;21275;-78
2021/04/11 04:58:55;;;;;;;30.08;13.72;;;;;;;11.39;55.98;100366.55;1643590;85;21212;-77
2021/04/11 05:01:46;;;;;;;28.65;12.75;;;;;;;11.36;55.98;100366.86;1645879;85;22449;-78
2021/04/11 05:04:24;;;;;;;24.00;12.60;;;;;;;11.42;55.87;100368.88;1642920;85;21391;-79
2021/04/11 05:07:06;;;;;;;30.37;13.22;;;;;;;11.39;55.89;100373.63;1642576;85;21310;-78
2021/04/11 05:09:49;;;;;;;26.12;12.82;;;;;;;11.42;55.91;100367.56;1654398;85;21268;-78
2021/04/11 05:12:47;;;;;;;27.82;12.90;;;;;;;11.46;55.79;100371.53;1651741;85;21192;-79
2021/04/11 05:15:23;;;;;;;24.30;12.20;;;;;;;11.47;55.63;100377.67;1656599;85;21208;-79
2021/04/11 05:17:58;;;;;;;26.37;12.18;;;;;;;11.43;55.84;100371.84;1660167;85;21272;-79
2021/04/11 05:20:32;;;;;;;27.17;12.43;;;;;;;11.39;55.87;100369.19;1657989;85;21264;-78
2021/04/11 05:23:19;;;;;;;22.82;10.98;;;;;;;11.40;55.96;100376.63;1655064;85;22339;-78
2021/04/11 05:26:09;;;;;;;25.02;11.15;;;;;;;11.41;56.17;100381.75;1658959;85;21213;-77
2021/04/11 05:29:07;;;;;;;23.57;11.33;;;;;;;11.57;55.75;100382.84;1667491;85;21660;-79
2021/04/11 05:31:34;;;;;;;24.20;11.97;;;;;;;11.70;55.26;100376.64;1628100;85;21222;-78
2021/04/11 05:34:01;;;;;;;22.95;11.65;;;;;;;11.74;55.28;100380.61;1659600;84;21327;-78
2021/04/11 05:37:07;;;;;;;22.42;11.18;;;;;;;11.78;55.21;100381.96;1666616;85;21212;-78
2021/04/11 05:39:51;;;;;;;21.48;11.20;;;;;;;11.85;54.81;100374.20;1671151;84;21221;-76
2021/04/11 05:42:23;;;;;;;23.02;11.22;;;;;;;11.93;54.70;100371.65;1636036;87;21250;-77
2021/04/11 05:45:28;;;;;;;22.55;10.90;;;;;;;11.94;54.67;100365.85;1636521;86;21419;-77
2021/04/11 05:48:21;;;;;;;19.37;10.45;;;;;;;11.94;54.56;100367.99;1637401;86;21270;-77
2021/04/11 05:51:05;;;;;;;23.00;11.03;;;;;;;12.15;54.24;100369.37;1635356;86;21261;-76
2021/04/11 05:53:52;;;;;;;21.60;10.95;;;;;;;12.16;54.28;100374.52;1620858;87;21234;-76
2021/04/11 05:56:25;;;;;;;23.27;11.35;;;;;;;12.18;54.20;100375.20;1639458;86;21222;-75
2021/04/11 05:59:07;;;;;;;21.27;10.68;;;;;;;12.25;53.87;100377.20;1635644;87;21359;-75
2021/04/11 06:01:49;;;;;;;24.32;10.72;;;;;;;12.35;53.87;100371.25;1635706;86;21239;-75
2021/04/11 06:04:41;;;;;;;21.85;10.95;;;;;;;12.35;53.62;100375.22;1594801;87;21663;-77
2021/04/11 06:07:13;;;;;;;28.35;11.22;;;;;;;12.44;53.55;100370.28;1635168;87;21246;-78
2021/04/11 06:09:53;;;;;;;22.27;10.70;;;;;;;12.50;53.37;100377.58;1619456;87;21610;-75
2021/04/11 06:12:54;;;;;;;21.05;10.35;;;;;;;12.52;53.17;100372.96;1635370;87;21210;-77
2021/04/11 06:15:42;;;;;;;20.08;10.85;;;;;;;12.67;53.22;100367.83;1635504;86;21238;-75
2021/04/11 06:18:09;;;;;;;23.50;10.60;;;;;;;12.72;52.84;100373.95;1635318;86;21227;-76
2021/04/11 06:20:40;;;;;;;22.85;10.10;;;;;;;12.76;52.69;100375.30;1591947;87;21187;-77
2021/04/11 06:23:38;;;;;;;22.17;10.65;;;;;;;12.89;52.73;100370.31;1613708;86;21183;-76
2021/04/11 06:26:35;;;;;;;20.80;9.93;;;;;;;12.92;52.50;100375.28;1634691;86;21210;-78
2021/04/11 06:29:14;;;;;;;24.90;10.43;;;;;;;13.06;52.36;100371.14;1634681;87;21244;-76
2021/04/11 06:32:00;;;;;;;21.20;9.53;;;;;;;13.13;51.83;100368.67;1630938;86;21684;-77
2021/04/11 06:34:45;;;;;;;21.60;10.00;;;;;;;13.23;51.71;100366.64;1634847;86;21266;-78
2021/04/11 06:37:17;;;;;;;21.07;10.23;;;;;;;13.38;51.45;100362.03;1635603;87;21218;-78
2021/04/11 06:39:45;;;;;;;18.15;10.08;;;;;;;13.49;51.06;100356.87;1635867;87;21972;-78
2021/04/11 06:43:08;;;;;;;23.00;10.20;;;;;;;13.61;50.75;100360.30;1635829;86;21195;-76
2021/04/11 06:45:38;;;;;;;21.23;9.95;;;;;;;13.72;50.49;100347.64;1635277;87;21226;-77
2021/04/11 06:48:35;;;;;;;22.93;10.50;;;;;;;13.80;50.13;100348.95;1634388;86;21218;-79
2021/04/11 06:51:33;;;;;;;19.37;9.80;;;;;;;13.88;49.95;100344.93;1621263;86;21137;-78
2021/04/11 06:54:17;;;;;;;19.73;9.43;;;;;;;13.94;49.64;100357.52;1635641;86;21590;-77
2021/04/11 06:56:57;;;;;;;20.17;10.28;;;;;;;13.96;49.61;100354.17;1616236;87;21171;-75
2021/04/11 06:59:46;;;;;;;20.72;10.20;;;;;;;14.05;49.24;100344.36;1636784;86;21191;-76
2021/04/11 07:02:36;;;;;;;19.62;9.55;;;;;;;14.13;49.17;100343.48;1635370;86;21239;-74
2021/04/11 07:05:30;;;;;;;19.60;10.13;;;;;;;14.30;48.97;100333.08;1636134;87;21221;-76
2021/04/11 07:08:50;;;;;;;20.25;10.35;;;;;;;14.39;48.45;100327.22;1636436;87;21393;-77
2021/04/11 07:11:52;;;;;;;19.92;9.53;;;;;;;14.48;48.08;100320.84;1635572;86;21308;-75
2021/04/11 07:14:36;;;;;;;19.12;9.85;;;;;;;14.56;47.84;100321.28;1636278;87;21686;-76
2021/04/11 07:17:28;;;;;;;19.57;9.83;;;;;;;14.69;47.99;100323.37;1636086;87;21222;-76
2021/04/11 07:20:11;;;;;;;20.85;10.00;;;;;;;14.80;47.52;100319.45;1635487;87;21166;-77
2021/04/11 07:23:07;;;;;;;19.90;9.78;;;;;;;14.83;46.88;100316.44;1637466;86;21245;-80
2021/04/11 07:26:09;;;;;;;20.77;9.45;;;;;;;14.98;46.74;100315.15;1639031;86;21255;-80
2021/04/11 07:29:13;;;;;;;20.57;9.48;;;;;;;15.05;46.92;100322.70;1636312;87;21270;-80
2021/04/11 07:32:17;;;;;;;19.20;9.50;;;;;;;15.08;48.30;100325.82;1635202;87;21230;-78
2021/04/11 07:35:00;;;;;;;19.77;9.70;;;;;;;15.17;48.73;100323.10;1635554;86;21203;-79
2021/04/11 07:38:22;;;;;;;20.77;9.30;;;;;;;15.30;48.41;100323.80;1638364;86;21255;-79
2021/04/11 07:41:23;;;;;;;19.73;9.18;;;;;;;15.30;48.36;100324.61;1641661;86;21222;-79
2021/04/11 07:44:19;;;;;;;19.62;9.25;;;;;;;15.35;48.54;100329.38;1621807;86;21824;-79
2021/04/11 07:47:26;;;;;;;18.77;9.40;;;;;;;15.35;48.38;100332.05;1637240;86;28813;-80
2021/04/11 07:50:28;;;;;;;19.27;9.48;;;;;;;15.34;48.39;100341.87;1636124;86;21243;-79
2021/04/11 07:53:30;;;;;;;20.32;9.50;;;;;;;15.36;48.02;100339.84;1611736;87;21341;-79
2021/04/11 07:56:10;;;;;;;20.27;9.68;;;;;;;15.37;47.99;100338.84;1634167;86;21259;-79
2021/04/11 07:59:04;;;;;;;17.80;9.35;;;;;;;15.50;47.98;100334.72;1584090;86;21248;-80
2021/04/11 08:01:53;;;;;;;18.05;9.83;;;;;;;15.42;47.99;100335.12;1637393;86;21234;-80
2021/04/11 08:04:53;;;;;;;20.50;9.15;;;;;;;15.50;48.08;100335.53;1634270;86;21644;-78
2021/04/11 08:07:50;;;;;;;18.82;9.03;;;;;;;15.55;47.73;100338.49;1635510;86;21354;-79
2021/04/11 08:10:33;;;;;;;22.70;9.88;;;;;;;15.62;47.62;100333.25;1642219;86;25536;-80
2021/04/11 08:13:20;;;;;;;17.42;8.40;;;;;;;15.68;47.50;100341.83;1634745;86;21234;-80
2021/04/11 08:15:56;;;;;;;15.48;8.70;;;;;;;15.82;47.18;100334.02;1638802;86;21297;-79
2021/04/11 08:18:51;;;;;;;20.40;9.18;;;;;;;15.89;47.08;100334.42;1636713;86;21244;-78
2021/04/11 08:21:29;;;;;;;17.48;8.65;;;;;;;15.96;46.79;100331.34;1635533;86;21498;-80
2021/04/11 08:24:23;;;;;;;21.55;8.73;;;;;;;15.98;46.40;100328.48;1635501;86;21506;-80
2021/04/11 08:27:06;;;;;;;14.03;8.00;;;;;;;16.09;46.53;100326.66;1636588;86;21234;-77
2021/04/11 08:29:57;;;;;;;15.63;8.48;;;;;;;16.29;46.07;100328.73;1635125;86;21725;-78
2021/04/11 08:33:13;;;;;;;18.98;8.15;;;;;;;16.35;45.33;100333.30;1637514;86;21210;-76
2021/04/11 08:36:10;;;;;;;17.37;7.85;;;;;;;16.39;45.29;100329.25;1634581;86;21217;-77
2021/04/11 08:39:16;;;;;;;16.90;7.33;;;;;;;16.48;44.88;100332.59;1635776;86;21644;-79
2021/04/11 08:42:07;;;;;;;;;;;;;;;16.55;44.92;100327.35;1637619;86;21213;-79
2021/04/11 08:45:20;;;;;;;13.38;6.97;;;;;;;16.69;44.31;100330.45;1637558;86;20241;-79
2021/04/11 08:48:23;;;;;;;17.48;6.65;;;;;;;16.78;44.09;100325.78;1635535;86;21698;-77
2021/04/11 08:51:18;;;;;;;14.50;6.90;;;;;;;16.88;43.56;100327.66;1636198;86;21331;-76
2021/04/11 08:54:09;;;;;;;13.58;6.40;;;;;;;17.02;43.54;100316.58;1635927;86;21637;-77
2021/04/11 08:56:41;;;;;;;12.63;5.78;;;;;;;17.11;43.07;100320.74;1634740;86;21084;-80
2021/04/11 08:59:28;;;;;;;13.62;5.90;;;;;;;17.17;42.90;100323.97;1613711;87;21250;-78
2021/04/11 09:02:40;;;;;;;13.98;6.28;;;;;;;17.27;42.56;100319.61;1638024;86;21247;-78
2021/04/11 09:05:27;;;;;;;11.80;6.17;;;;;;;17.43;42.46;100309.11;1636028;86;21226;-79
2021/04/11 09:08:22;;;;;;;11.25;5.70;;;;;;;17.61;42.51;100311.79;1636427;87;21212;-79
2021/04/11 09:10:56;;;;;;;13.40;5.90;;;;;;;17.72;42.19;100313.89;1640183;86;21286;-78
2021/04/11 09:14:02;;;;;;;12.18;5.70;;;;;;;17.81;41.87;100307.34;1639481;86;21316;-79
2021/04/11 09:16:56;;;;;;;12.05;5.20;;;;;;;17.84;41.69;100302.94;1639927;86;21256;-79
2021/04/11 09:19:44;;;;;;;11.63;5.22;;;;;;;18.00;41.57;100295.63;1639979;86;21246;-77
2021/04/11 09:22:22;;;;;;;11.88;5.55;;;;;;;18.04;41.54;100288.86;1614605;86;21225;-76
2021/04/11 09:24:53;;;;;;;12.45;5.15;;;;;;;18.09;41.53;100279.20;1635359;86;21242;-75
2021/04/11 09:27:39;;;;;;;13.70;4.83;;;;;;;18.08;40.97;100274.86;1638729;86;21198;-76
2021/04/11 09:30:22;;;;;;;10.35;4.90;;;;;;;18.11;39.62;100274.98;1625833;86;21684;-77
2021/04/11 09:33:01;;;;;;;11.15;4.50;;;;;;;18.10;39.31;100271.98;1636293;86;21654;-77
2021/04/11 09:35:48;;;;;;;9.65;4.22;;;;;;;18.10;39.71;100267.98;1634775;86;21230;-77
2021/04/11 09:39:02;;;;;;;7.28;3.75;;;;;;;18.21;39.24;100261.22;1636743;86;21211;-75
2021/04/11 09:41:54;;;;;;;9.55;3.77;;;;;;;18.30;38.71;100254.16;1635838;87;21203;-77
2021/04/11 09:44:54;;;;;;;9.83;3.98;;;;;;;18.24;37.62;100256.30;1605690;86;21241;-78
2021/04/11 09:47:30;;;;;;;11.68;3.30;;;;;;;18.35;37.69;100256.22;1641043;84;21394;-77
2021/04/11 09:50:25;;;;;;;12.03;4.20;;;;;;;18.52;37.28;100250.44;1639577;85;21167;-78
2021/04/11 09:53:32;;;;;;;12.00;4.12;;;;;;;18.60;37.08;100249.73;1636590;86;21187;-76
2021/04/11 09:56:23;;;;;;;7.10;3.35;;;;;;;18.55;36.75;100242.84;1634469;86;21257;-79
2021/04/11 09:59:03;;;;;;;8.70;3.12;;;;;;;18.68;36.16;100240.67;1621038;86;21150;-80
2021/04/11 10:02:05;;;;;;;8.65;3.12;;;;;;;18.72;35.47;100240.58;1634510;86;21210;-78
2021/04/11 10:05:03;;;;;;;12.55;3.40;;;;;;;18.91;35.62;100246.95;1635505;86;21192;-79
2021/04/11 10:07:57;;;;;;;8.70;3.08;;;;;;;19.00;34.99;100229.64;1635838;86;21605;-80
2021/04/11 10:10:49;;;;;;;8.83;3.40;;;;;;;19.10;34.05;100229.72;1636329;86;21187;-78
2021/04/11 10:13:53;;;;;;;6.90;2.80;;;;;;;19.15;33.89;100229.38;1637539;86;21186;-77
2021/04/11 10:16:36;;;;;;;9.03;3.15;;;;;;;19.27;33.85;100234.91;1635897;86;21573;-78
2021/04/11 10:19:39;;;;;;;5.67;2.80;;;;;;;19.36;33.65;100232.30;1635839;86;21051;-76
2021/04/11 10:22:30;;;;;;;7.87;2.80;;;;;;;19.59;33.81;100223.44;1636660;86;21212;-78
2021/04/11 10:25:25;;;;;;;8.73;2.87;;;;;;;19.74;33.54;100211.39;1632488;86;21218;-76
2021/04/11 10:28:02;;;;;;;8.18;2.70;;;;;;;19.77;33.38;100221.44;1636306;86;21262;-80
2021/04/11 10:30:28;;;;;;;6.62;2.60;;;;;;;19.87;33.61;100205.69;1636057;86;22390;-77
2021/04/11 10:33:08;;;;;;;8.83;3.00;;;;;;;19.79;33.45;100207.29;1636146;86;21227;-78
2021/04/11 10:35:52;;;;;;;5.92;2.60;;;;;;;19.83;33.67;100203.16;1658658;84;21256;-76
2021/04/11 10:38:36;;;;;;;7.90;2.70;;;;;;;19.97;33.60;100204.70;1603974;86;21215;-78
2021/04/11 10:41:28;;;;;;;8.95;3.00;;;;;;;20.01;33.46;100202.39;1636768;87;21194;-77
2021/04/11 10:44:16;;;;;;;8.13;2.85;;;;;;;20.06;33.01;100198.03;1636165;86;21675;-79
2021/04/11 10:46:57;;;;;;;8.93;2.90;;;;;;;20.09;33.01;100210.20;1635650;86;21202;-79
2021/04/11 10:50:18;;;;;;;6.90;3.00;;;;;;;20.09;32.61;100194.92;1635076;86;21245;-78
2021/04/11 10:52:53;;;;;;;9.13;2.95;;;;;;;20.20;32.32;100197.95;1636990;86;21202;-78
2021/04/11 10:55:27;;;;;;;10.68;2.90;;;;;;;20.27;31.90;100200.03;1635681;86;21222;-80
2021/04/11 10:58:45;;;;;;;7.37;2.65;;;;;;;20.30;31.98;100187.53;1636048;86;41958;-78
2021/04/11 11:01:40;;;;;;;9.90;2.75;;;;;;;20.29;32.41;100195.30;1636009;86;21233;-79
2021/04/11 11:04:34;;;;;;;7.37;2.80;;;;;;;20.22;32.06;100190.50;1560784;90;21180;-79
2021/04/11 11:07:34;;;;;;;6.45;2.50;;;;;;;20.31;32.48;100191.86;1630504;87;21170;-79
2021/04/11 11:10:37;;;;;;;7.58;2.67;;;;;;;20.41;32.31;100182.78;1635720;86;21704;-79
2021/04/11 11:13:35;;;;;;;7.25;2.90;;;;;;;20.56;32.30;100196.39;1631401;86;21096;-79
2021/04/11 11:16:21;;;;;;;6.55;2.90;;;;;;;20.67;31.88;100176.91;1635282;86;21333;-78
2021/04/11 11:19:13;;;;;;;10.23;2.98;;;;;;;20.58;32.04;100174.18;1632756;86;21246;-80
2021/04/11 11:22:01;;;;;;;7.22;3.00;;;;;;;20.60;31.98;100172.09;1646096;85;21238;-80
2021/04/11 11:24:54;;;;;;;9.63;2.75;;;;;;;20.78;32.00;100178.84;1646925;85;21195;-80
2021/04/11 11:28:08;;;;;;;7.53;3.05;;;;;;;21.03;31.54;100173.92;1646911;85;22085;-79
2021/04/11 11:31:04;;;;;;;6.72;3.10;;;;;;;21.14;31.02;100162.95;1664153;84;21204;-80
2021/04/11 11:34:02;;;;;;;9.10;3.30;;;;;;;21.11;31.28;100172.80;1655929;84;21220;-79
2021/04/11 11:37:10;;;;;;;7.37;3.00;;;;;;;21.39;31.18;100173.58;1640531;86;21912;-81
2021/04/11 11:40:10;;;;;;;6.15;2.80;;;;;;;21.35;30.70;100168.38;1637204;85;21282;-81
2021/04/11 11:43:32;;;;;;;10.08;2.87;;;;;;;21.38;30.10;100161.71;1654445;85;21213;-80
2021/04/11 11:46:13;;;;;;;5.55;2.95;;;;;;;21.56;30.88;100156.86;1652113;85;21648;-81
2021/04/11 11:48:57;;;;;;;7.85;3.08;;;;;;;21.34;30.44;100166.73;1651596;85;21210;-80
2021/04/11 11:52:09;;;;;;;5.78;2.58;;;;;;;21.50;30.55;100156.73;1655305;84;21337;-82
2021/04/11 11:54:53;;;;;;;6.50;2.70;;;;;;;21.50;30.40;100156.73;1650681;85;21229;-79
2021/04/11 11:57:45;;;;;;;5.62;2.77;;;;;;;21.45;30.08;100153.86;1650154;85;21174;-79
2021/04/11 12:00:37;;;;;;;6.67;2.85;;;;;;;21.55;30.20;100151.18;1650327;85;21719;-80
2021/04/11 12:03:30;;;;;;;10.25;2.67;;;;;;;21.48;30.12;100148.56;1650352;85;21674;-81
2021/04/11 12:06:25;;;;;;;10.53;2.70;;;;;;;21.54;30.19;100150.91;1647448;85;21246;-80
2021/04/11 12:09:31;;;;;;;9.63;3.13;;;;;;;21.54;30.21;100156.28;1650750;85;21543;-78
2021/04/11 12:12:23;;;;;;;6.00;2.80;;;;;;;21.66;29.86;100149.08;1642519;84;21225;-79
2021/04/11 12:15:09;;;;;;;6.83;2.80;;;;;;;21.62;29.83;100143.85;1638691;85;21246;-78
2021/04/11 12:17:52;;;;;;;7.37;2.92;;;;;;;21.78;30.25;100137.83;1635531;86;21179;-81
2021/04/11 12:20:51;;;;;;;8.53;3.00;;;;;;;21.80;30.57;100137.06;1639050;85;21289;-78
2021/04/11 12:23:44;;;;;;;7.97;2.80;;;;;;;22.03;30.32;100138.98;1639544;85;21211;-77
2021/04/11 12:26:18;;;;;;;7.17;2.98;;;;;;;22.07;30.28;100135.28;1646354;85;21286;-82
2021/04/11 12:28:46;;;;;;;6.03;2.58;;;;;;;22.00;30.36;100131.87;1614113;87;21560;-79